createdAt,value
2023-04-16T00:00:32.697Z,7.63
2023-04-16T00:03:35.310Z,7.50
2023-04-16T00:06:37.688Z,7.50
2023-04-16T00:09:39.985Z,7.46
2023-04-16T00:12:42.164Z,7.17
2023-04-16T00:15:44.385Z,7.07
2023-04-16T00:18:46.622Z,7.10
2023-04-16T00:21:48.884Z,7.16
2023-04-16T00:24:50.918Z,7.15
2023-04-16T00:27:53.195Z,7.02
2023-04-16T00:30:55.762Z,6.99
2023-04-16T00:33:58.756Z,6.94
2023-04-16T00:37:00.811Z,7.01
2023-04-16T00:40:03.136Z,6.93
2023-04-16T00:43:05.315Z,6.85
2023-04-16T00:46:07.757Z,6.88
2023-04-16T00:49:10.313Z,6.63
2023-04-16T00:52:12.639Z,6.49
2023-04-16T00:55:17.665Z,6.55
2023-04-16T00:58:20.290Z,6.53
2023-04-16T01:01:22.885Z,6.66
2023-04-16T01:04:26.176Z,6.60
2023-04-16T01:07:28.664Z,6.63
2023-04-16T01:10:31.097Z,6.62
2023-04-16T01:13:33.743Z,6.71
2023-04-16T01:16:36.617Z,6.72
2023-04-16T01:19:38.582Z,6.55
2023-04-16T01:22:40.833Z,6.62
2023-04-16T01:25:42.811Z,6.55
2023-04-16T01:28:45.295Z,6.52
2023-04-16T01:31:47.488Z,6.65
2023-04-16T01:34:50.071Z,6.77
2023-04-16T01:37:52.123Z,6.73
2023-04-16T01:41:00.367Z,6.78
2023-04-16T01:44:02.392Z,6.83
2023-04-16T01:47:04.853Z,6.89
2023-04-16T01:50:07.160Z,6.99
2023-04-16T01:53:09.717Z,6.99
2023-04-16T01:56:11.678Z,7.07
2023-04-16T01:59:13.964Z,7.02
2023-04-16T02:02:16.622Z,7.13
2023-04-16T02:05:19.022Z,7.10
2023-04-16T02:08:22.193Z,7.18
2023-04-16T02:11:24.433Z,7.31
2023-04-16T02:14:26.391Z,7.27
2023-04-16T02:17:28.776Z,7.21
2023-04-16T02:20:40.273Z,7.16
2023-04-16T02:23:42.254Z,7.18
2023-04-16T02:26:45.167Z,7.09
2023-04-16T02:29:47.640Z,7.03
2023-04-16T02:32:50.610Z,7.00
2023-04-16T02:35:53.149Z,7.00
2023-04-16T02:38:55.546Z,7.08
2023-04-16T02:41:59.305Z,7.06
2023-04-16T02:45:01.888Z,6.97
2023-04-16T02:48:04.451Z,6.97
2023-04-16T02:51:06.693Z,6.97
2023-04-16T02:54:08.832Z,6.92
2023-04-16T02:57:11.123Z,6.82
2023-04-16T03:00:13.262Z,6.81
2023-04-16T03:03:15.741Z,6.92
2023-04-16T03:06:17.752Z,6.91
2023-04-16T03:09:20.023Z,6.66
2023-04-16T03:12:22.011Z,6.43
2023-04-16T03:15:25.185Z,6.43
2023-04-16T03:18:27.208Z,6.53
2023-04-16T03:21:29.800Z,6.54
2023-04-16T03:24:33.424Z,6.57
2023-04-16T03:27:35.718Z,6.49
2023-04-16T03:30:39.441Z,6.43
2023-04-16T03:33:42.553Z,6.37
2023-04-16T03:36:44.773Z,6.09
2023-04-16T03:39:47.296Z,5.72
2023-04-16T03:42:49.992Z,5.70
2023-04-16T03:45:52.426Z,5.64
2023-04-16T03:48:55.071Z,5.78
2023-04-16T03:51:57.397Z,5.67
2023-04-16T03:55:00.606Z,5.23
2023-04-16T03:58:03.481Z,5.16
2023-04-16T04:01:06.533Z,5.42
2023-04-16T04:04:09.569Z,5.16
2023-04-16T04:07:12.196Z,5.45
2023-04-16T04:10:14.830Z,5.56
2023-04-16T04:13:16.952Z,5.57
2023-04-16T04:16:19.439Z,5.66
2023-04-16T04:19:21.386Z,5.60
2023-04-16T04:22:23.782Z,5.69
2023-04-16T04:25:27.451Z,5.86
2023-04-16T04:28:30.568Z,6.18
2023-04-16T04:31:33.736Z,6.21
2023-04-16T04:34:37.256Z,6.43
2023-04-16T04:37:40.498Z,6.52
2023-04-16T04:40:43.136Z,6.34
2023-04-16T04:43:45.265Z,6.55
2023-04-16T04:46:47.737Z,7.00
2023-04-16T04:49:49.920Z,7.42
2023-04-16T04:52:52.268Z,7.81
2023-04-16T04:55:57.523Z,7.89
2023-04-16T04:59:08.363Z,8.04
2023-04-16T05:02:10.553Z,7.62
2023-04-16T05:05:12.883Z,7.56
2023-04-16T05:08:14.953Z,7.40
2023-04-16T05:11:17.294Z,7.33
2023-04-16T05:14:19.359Z,7.27
2023-04-16T05:17:21.614Z,7.45
2023-04-16T05:20:26.641Z,7.23
2023-04-16T05:23:28.902Z,7.32
2023-04-16T05:26:30.934Z,7.47
2023-04-16T05:29:33.350Z,7.44
2023-04-16T05:32:35.921Z,7.67
2023-04-16T05:35:38.268Z,7.52
2023-04-16T05:38:40.245Z,7.50
2023-04-16T05:41:42.768Z,7.76
2023-04-16T05:44:45.068Z,7.81
2023-04-16T05:47:47.423Z,7.89
2023-04-16T05:50:49.555Z,7.96
2023-04-16T05:53:51.766Z,8.16
2023-04-16T05:56:53.747Z,8.25
2023-04-16T05:59:56.025Z,8.25
2023-04-16T06:02:58.250Z,8.45
2023-04-16T06:06:00.642Z,8.50
2023-04-16T06:09:02.653Z,8.79
2023-04-16T06:12:05.124Z,9.12
2023-04-16T06:15:07.427Z,9.17
2023-04-16T06:18:09.774Z,9.14
2023-04-16T06:21:11.982Z,9.14
2023-04-16T06:24:14.314Z,9.31
2023-04-16T06:27:16.285Z,9.52
2023-04-16T06:30:19.778Z,9.86
2023-04-16T06:33:21.859Z,10.45
2023-04-16T06:36:24.224Z,10.66
2023-04-16T06:39:26.247Z,10.87
2023-04-16T06:42:29.555Z,11.36
2023-04-16T06:45:31.527Z,11.59
2023-04-16T06:48:33.790Z,11.61
2023-04-16T06:51:35.768Z,11.98
2023-04-16T06:54:38.115Z,12.12
2023-04-16T06:57:40.829Z,12.53
2023-04-16T07:00:43.169Z,12.23
2023-04-16T07:03:45.328Z,11.74
2023-04-16T07:06:47.798Z,11.62
2023-04-16T07:09:49.912Z,11.90
2023-04-16T07:12:52.447Z,12.54
2023-04-16T07:15:54.443Z,13.15
2023-04-16T07:18:56.659Z,13.77
2023-04-16T07:21:59.270Z,14.06
2023-04-16T07:25:01.528Z,14.10
2023-04-16T07:28:03.482Z,13.96
2023-04-16T07:31:05.776Z,14.39
2023-04-16T07:34:07.895Z,14.78
2023-04-16T07:37:10.433Z,14.32
2023-04-16T07:40:12.564Z,14.38
2023-04-16T07:43:16.252Z,14.74
2023-04-16T07:46:18.281Z,14.52
2023-04-16T07:49:20.533Z,14.42
2023-04-16T07:52:22.505Z,14.13
2023-04-16T07:55:24.738Z,13.55
2023-04-16T07:58:26.678Z,13.22
2023-04-16T08:01:29.024Z,13.30
2023-04-16T08:04:31.382Z,13.54
2023-04-16T08:07:34.820Z,13.33
2023-04-16T08:10:37.229Z,13.09
2023-04-16T08:13:39.325Z,12.97
2023-04-16T08:16:41.883Z,13.35
2023-04-16T08:19:45.066Z,13.44
2023-04-16T08:22:48.076Z,13.79
2023-04-16T08:25:51.798Z,14.17
2023-04-16T08:28:56.134Z,14.19
2023-04-16T08:31:58.768Z,13.89
2023-04-16T08:35:01.024Z,14.09
2023-04-16T08:38:04.748Z,14.36
2023-04-16T08:41:09.325Z,14.31
2023-04-16T08:44:19.624Z,14.34
2023-04-16T08:47:24.178Z,13.62
2023-04-16T08:50:28.893Z,13.65
2023-04-16T08:53:43.357Z,13.62
2023-04-16T08:56:45.386Z,13.55
2023-04-16T08:59:48.192Z,13.75
2023-04-16T09:02:51.658Z,13.68
2023-04-16T09:05:55.466Z,14.28
2023-04-16T09:09:01.647Z,14.16
2023-04-16T09:12:04.691Z,14.37
2023-04-16T09:15:07.924Z,14.48
2023-04-16T09:18:12.028Z,14.72
2023-04-16T09:21:14.262Z,14.82
2023-04-16T09:24:16.550Z,14.79
2023-04-16T09:27:18.887Z,14.81
2023-04-16T09:30:21.952Z,14.67
2023-04-16T09:33:23.960Z,14.32
2023-04-16T09:36:26.689Z,14.12
2023-04-16T09:39:28.652Z,14.14
2023-04-16T09:42:32.305Z,14.38
2023-04-16T09:45:47.737Z,14.42
2023-04-16T09:48:50.085Z,14.47
2023-04-16T09:51:56.060Z,14.49
2023-04-16T09:54:59.820Z,14.41
2023-04-16T09:58:02.180Z,14.33
2023-04-16T10:01:11.667Z,14.66
2023-04-16T10:04:14.012Z,14.88
2023-04-16T10:07:16.799Z,14.71
2023-04-16T10:10:19.230Z,15.22
2023-04-16T10:13:21.261Z,15.60
2023-04-16T10:16:24.115Z,15.59
2023-04-16T10:19:27.498Z,15.76
2023-04-16T10:22:29.946Z,16.12
2023-04-16T10:25:32.574Z,16.07
2023-04-16T10:28:37.499Z,16.33
2023-04-16T10:31:40.620Z,16.38
2023-04-16T10:34:42.880Z,16.49
2023-04-16T10:37:45.267Z,16.30
2023-04-16T10:40:47.578Z,16.51
2023-04-16T10:43:50.707Z,16.93
2023-04-16T10:46:54.673Z,16.82
2023-04-16T10:49:59.115Z,16.85
2023-04-16T10:53:39.866Z,17.37
2023-04-16T10:56:44.278Z,17.08
2023-04-16T10:59:48.402Z,17.11
2023-04-16T11:02:53.694Z,17.16
2023-04-16T11:06:09.648Z,17.33
2023-04-16T11:09:31.552Z,17.26
2023-04-16T11:12:35.823Z,17.27
2023-04-16T11:15:37.801Z,17.31
2023-04-16T11:18:47.719Z,16.97
2023-04-16T11:21:53.616Z,16.98
2023-04-16T11:24:56.729Z,16.96
2023-04-16T11:27:59.196Z,16.89
2023-04-16T11:31:10.653Z,16.78
2023-04-16T11:34:13.013Z,16.88
2023-04-16T11:37:15.278Z,16.97
2023-04-16T11:40:17.255Z,16.90
2023-04-16T11:43:19.802Z,17.00
2023-04-16T11:46:27.442Z,16.90
2023-04-16T11:49:31.073Z,17.13
2023-04-16T11:52:33.676Z,17.05
2023-04-16T11:55:42.960Z,16.92
2023-04-16T11:58:45.019Z,16.91
2023-04-16T12:01:52.389Z,16.91
2023-04-16T12:04:54.794Z,16.88
2023-04-16T12:07:57.073Z,17.11
2023-04-16T12:10:59.655Z,17.57
2023-04-16T12:14:11.635Z,17.49
2023-04-16T12:17:20.959Z,17.53
2023-04-16T12:20:22.932Z,17.62
2023-04-16T12:23:26.550Z,18.01
2023-04-16T12:26:35.562Z,18.00
2023-04-16T12:29:38.726Z,18.03
2023-04-16T12:32:41.834Z,17.97
2023-04-16T12:35:45.007Z,18.09
2023-04-16T12:38:46.977Z,18.11
2023-04-16T12:41:49.238Z,18.21
2023-04-16T12:44:51.485Z,18.36
2023-04-16T12:47:53.982Z,18.32
2023-04-16T12:50:56.177Z,18.41
2023-04-16T12:53:58.566Z,18.55
2023-04-16T12:57:00.626Z,18.35
2023-04-16T13:00:04.965Z,18.30
2023-04-16T13:03:07.083Z,18.31
2023-04-16T13:06:09.542Z,18.33
2023-04-16T13:09:12.084Z,18.40
2023-04-16T13:12:14.585Z,18.30
2023-04-16T13:15:16.573Z,18.46
2023-04-16T13:18:18.854Z,18.56
2023-04-16T13:21:21.140Z,18.52
2023-04-16T13:24:23.606Z,18.42
2023-04-16T13:27:25.676Z,18.42
2023-04-16T13:30:29.402Z,18.34
2023-04-16T13:33:31.671Z,18.23
2023-04-16T13:36:34.052Z,18.23
2023-04-16T13:39:36.046Z,18.16
2023-04-16T13:42:38.357Z,17.95
2023-04-16T13:45:40.604Z,17.77
2023-04-16T13:48:42.890Z,17.83
2023-04-16T13:51:44.950Z,17.91
2023-04-16T13:54:47.233Z,17.87
2023-04-16T13:57:56.305Z,17.94
2023-04-16T14:00:58.659Z,17.74
2023-04-16T14:04:05.939Z,17.67
2023-04-16T14:07:08.265Z,17.60
2023-04-16T14:10:10.906Z,17.58
2023-04-16T14:13:13.292Z,17.41
2023-04-16T14:16:15.727Z,17.38
2023-04-16T14:19:17.726Z,17.46
2023-04-16T14:22:20.032Z,17.36
2023-04-16T14:25:21.953Z,17.38
2023-04-16T14:28:24.269Z,17.43
2023-04-16T14:31:26.397Z,17.41
2023-04-16T14:34:28.685Z,17.45
2023-04-16T14:37:30.881Z,17.40
2023-04-16T14:40:34.266Z,17.38
2023-04-16T14:43:36.972Z,17.31
2023-04-16T14:46:41.008Z,17.07
2023-04-16T14:49:42.990Z,17.03
2023-04-16T14:52:45.362Z,16.86
2023-04-16T14:55:47.605Z,16.79
2023-04-16T14:58:49.903Z,16.68
2023-04-16T15:01:52.717Z,16.51
2023-04-16T15:04:55.357Z,16.43
2023-04-16T15:07:57.458Z,16.42
2023-04-16T15:10:59.693Z,16.42
2023-04-16T15:14:01.655Z,16.39
2023-04-16T15:17:03.979Z,16.51
2023-04-16T15:20:09.358Z,16.46
2023-04-16T15:23:11.579Z,16.41
2023-04-16T15:26:13.629Z,16.41
2023-04-16T15:29:15.960Z,16.54
2023-04-16T15:32:17.952Z,16.73
2023-04-16T15:35:20.300Z,16.84
2023-04-16T15:38:22.278Z,17.13
2023-04-16T15:41:24.650Z,17.12
2023-04-16T15:44:26.648Z,17.10
2023-04-16T15:47:28.945Z,16.99
2023-04-16T15:50:31.576Z,16.77
2023-04-16T15:53:34.220Z,16.63
2023-04-16T15:56:36.256Z,16.55
2023-04-16T15:59:38.582Z,16.33
2023-04-16T16:02:41.803Z,16.12
2023-04-16T16:05:46.230Z,15.94
2023-04-16T16:08:48.506Z,15.86
2023-04-16T16:11:50.917Z,15.81
2023-04-16T16:14:52.984Z,15.65
2023-04-16T16:17:57.393Z,15.59
2023-04-16T16:21:00.034Z,15.62
2023-04-16T16:24:02.352Z,15.51
2023-04-16T16:27:04.422Z,15.48
2023-04-16T16:30:07.596Z,15.43
2023-04-16T16:33:09.564Z,15.34
2023-04-16T16:36:12.088Z,15.35
2023-04-16T16:39:14.084Z,15.33
2023-04-16T16:42:18.671Z,15.37
2023-04-16T16:45:20.669Z,15.40
2023-04-16T16:48:22.898Z,15.46
2023-04-16T16:51:27.327Z,15.46
2023-04-16T16:54:29.588Z,15.44
2023-04-16T16:57:31.569Z,15.40
2023-04-16T17:00:34.108Z,15.35
2023-04-16T17:03:36.383Z,15.39
2023-04-16T17:06:39.321Z,15.32
2023-04-16T17:09:41.344Z,15.22
2023-04-16T17:12:43.693Z,15.15
2023-04-16T17:15:46.412Z,15.15
2023-04-16T17:18:48.627Z,15.05
2023-04-16T17:21:51.268Z,14.99
2023-04-16T17:24:53.531Z,14.94
2023-04-16T17:27:55.696Z,14.92
2023-04-16T17:30:58.019Z,14.99
2023-04-16T17:34:00.195Z,14.91
2023-04-16T17:37:02.468Z,14.84
2023-04-16T17:40:07.480Z,14.75
2023-04-16T17:43:09.923Z,14.76
2023-04-16T17:46:11.926Z,14.64
2023-04-16T17:49:14.182Z,14.48
2023-04-16T17:52:16.276Z,14.33
2023-04-16T17:55:18.495Z,14.38
2023-04-16T17:58:20.501Z,14.36
2023-04-16T18:01:22.811Z,14.32
2023-04-16T18:04:25.144Z,14.29
2023-04-16T18:07:27.126Z,14.28
2023-04-16T18:10:31.560Z,14.29
2023-04-16T18:13:33.583Z,14.13
2023-04-16T18:16:35.897Z,14.09
2023-04-16T18:19:39.396Z,14.13
2023-04-16T18:22:41.654Z,14.13
2023-04-16T18:25:44.563Z,14.03
2023-04-16T18:28:46.882Z,14.07
2023-04-16T18:31:50.416Z,14.06
2023-04-16T18:34:52.689Z,13.96
2023-04-16T18:37:54.624Z,13.98
2023-04-16T18:40:56.964Z,13.92
2023-04-16T18:43:58.975Z,13.89
2023-04-16T18:47:01.361Z,13.89
2023-04-16T18:50:03.632Z,13.93
2023-04-16T18:53:06.071Z,13.89
2023-04-16T18:56:08.358Z,13.85
2023-04-16T18:59:10.952Z,13.83
2023-04-16T19:02:13.639Z,13.86
2023-04-16T19:05:15.965Z,13.83
2023-04-16T19:08:18.009Z,13.67
2023-04-16T19:11:20.375Z,13.75
2023-04-16T19:14:22.372Z,13.90
2023-04-16T19:17:24.776Z,13.88
2023-04-16T19:20:27.076Z,13.82
2023-04-16T19:23:29.403Z,13.85
2023-04-16T19:26:31.375Z,13.90
2023-04-16T19:29:34.245Z,13.88
2023-04-16T19:32:36.604Z,13.83
2023-04-16T19:35:38.893Z,13.94
2023-04-16T19:38:41.086Z,13.92
2023-04-16T19:41:43.337Z,13.81
2023-04-16T19:44:45.451Z,13.84
2023-04-16T19:47:48.816Z,13.78
2023-04-16T19:50:51.156Z,13.74
2023-04-16T19:53:53.515Z,13.68
2023-04-16T19:56:55.588Z,13.69
2023-04-16T19:59:57.875Z,13.65
2023-04-16T20:02:59.962Z,13.61
2023-04-16T20:06:03.908Z,13.63
2023-04-16T20:09:06.108Z,13.70
2023-04-16T20:12:08.392Z,13.72
2023-04-16T20:15:10.473Z,13.73
2023-04-16T20:18:13.563Z,13.65
2023-04-16T20:21:15.527Z,13.68
2023-04-16T20:24:17.772Z,13.65
2023-04-16T20:27:19.770Z,13.68
2023-04-16T20:30:22.619Z,13.69
2023-04-16T20:33:24.632Z,13.67
2023-04-16T20:36:27.890Z,13.73
2023-04-16T20:39:33.992Z,13.73
2023-04-16T20:42:36.450Z,13.78
2023-04-16T20:45:40.666Z,13.74
2023-04-16T20:48:42.918Z,13.84
2023-04-16T20:51:44.874Z,13.92
2023-04-16T20:54:47.756Z,13.93
2023-04-16T20:57:51.256Z,13.92
2023-04-16T21:00:54.041Z,13.87
2023-04-16T21:03:56.355Z,13.85
2023-04-16T21:06:58.924Z,13.95
2023-04-16T21:10:01.433Z,13.93
2023-04-16T21:13:03.708Z,13.99
2023-04-16T21:16:06.212Z,13.95
2023-04-16T21:19:08.749Z,13.84
2023-04-16T21:22:10.918Z,13.82
2023-04-16T21:25:13.206Z,13.91
2023-04-16T21:28:15.179Z,13.77
2023-04-16T21:31:17.760Z,13.88
2023-04-16T21:34:19.721Z,13.84
2023-04-16T21:37:21.993Z,13.74
2023-04-16T21:40:23.966Z,13.74
2023-04-16T21:43:31.872Z,13.74
2023-04-16T21:46:33.834Z,13.71
2023-04-16T21:49:36.119Z,13.71
2023-04-16T21:52:40.695Z,13.78
2023-04-16T21:55:43.297Z,13.82
2023-04-16T21:58:45.339Z,13.78
2023-04-16T22:01:47.608Z,13.75
2023-04-16T22:04:50.496Z,13.74
2023-04-16T22:07:52.988Z,13.73
2023-04-16T22:10:59.240Z,13.65
2023-04-16T22:14:01.236Z,13.63
2023-04-16T22:17:03.502Z,13.67
2023-04-16T22:20:13.165Z,13.79
2023-04-16T22:23:15.808Z,13.73
2023-04-16T22:26:17.772Z,13.68
2023-04-16T22:29:20.133Z,13.77
2023-04-16T22:32:22.761Z,13.75
2023-04-16T22:35:25.115Z,13.77
2023-04-16T22:38:27.117Z,13.74
2023-04-16T22:41:29.355Z,13.75
2023-04-16T22:44:31.327Z,13.66
2023-04-16T22:47:33.640Z,13.65
2023-04-16T22:50:35.658Z,13.66
2023-04-16T22:53:38.192Z,13.63
2023-04-16T22:56:40.327Z,13.62
2023-04-16T22:59:42.577Z,13.54
2023-04-16T23:02:45.165Z,13.40
2023-04-16T23:05:47.502Z,13.37
2023-04-16T23:08:49.513Z,13.43
2023-04-16T23:11:51.780Z,13.44
2023-04-16T23:14:54.123Z,13.52
2023-04-16T23:17:56.472Z,13.44
2023-04-16T23:20:58.462Z,13.45
2023-04-16T23:24:00.693Z,13.55
2023-04-16T23:27:02.753Z,13.53
2023-04-16T23:30:05.420Z,13.48
2023-04-16T23:33:07.627Z,13.54
2023-04-16T23:36:10.013Z,13.46
2023-04-16T23:39:12.125Z,13.46
2023-04-16T23:42:14.573Z,13.53
2023-04-16T23:45:16.622Z,13.45
2023-04-16T23:48:18.958Z,13.46
2023-04-16T23:51:20.940Z,13.55
2023-04-16T23:54:23.184Z,13.53
2023-04-16T23:57:25.131Z,13.43
